Terminal Aerodrome Forecast
Issued by NWS

Home | Current Version | Previous Version | Text Only | Print | Product List | Glossary Off
Versions: 1 2 3 4 5 6 7 8 9 10 11 12 13 14 15 16 17 18 19 20

000
FTUS42 KMHX 191321 AAA
TAFOAJ
TAF AMD
KOAJ 191321Z 1913/2012 25005KT P6SM SKC
      TEMPO 1913/1914 OVC009
     FM191800 25005KT P6SM VCTS BKN050CB
     FM200100 VRB04KT P6SM SCT100
     FM201000 VRB03KT 3SM BR SCT050
      AMD LTD TO CLD VIS AND WIND=

USA.gov is the U.S. government's official web portal to all federal, state and local government web resources and services.